createdAt,value
2023-03-06T00:01:11.373Z,7.60
2023-03-06T00:03:42.699Z,7.60
2023-03-06T00:06:11.315Z,7.60
2023-03-06T00:08:39.791Z,7.50
2023-03-06T00:11:08.123Z,7.60
2023-03-06T00:13:36.529Z,7.60
2023-03-06T00:16:06.936Z,7.50
2023-03-06T00:18:36.058Z,7.50
2023-03-06T00:21:09.978Z,7.60
2023-03-06T00:23:39.208Z,7.50
2023-03-06T00:26:08.575Z,7.50
2023-03-06T00:28:37.765Z,7.50
2023-03-06T00:31:06.649Z,7.50
2023-03-06T00:33:36.585Z,7.50
2023-03-06T00:36:06.497Z,7.50
2023-03-06T00:38:37.250Z,7.50
2023-03-06T00:41:10.536Z,7.50
2023-03-06T00:43:39.004Z,7.50
2023-03-06T00:46:09.496Z,7.50
2023-03-06T00:48:37.897Z,7.40
2023-03-06T00:51:07.170Z,7.50
2023-03-06T00:53:37.366Z,7.40
2023-03-06T00:56:09.076Z,7.40
2023-03-06T00:58:38.269Z,7.50
2023-03-06T01:01:07.245Z,7.40
2023-03-06T01:03:35.655Z,7.40
2023-03-06T01:06:04.256Z,7.40
2023-03-06T01:08:33.844Z,7.50
2023-03-06T01:11:03.816Z,7.40
2023-03-06T01:13:32.363Z,7.40
2023-03-06T01:16:08.652Z,7.40
2023-03-06T01:18:37.733Z,7.40
2023-03-06T01:21:07.238Z,7.40
2023-03-06T01:23:36.900Z,7.40
2023-03-06T01:26:07.615Z,7.40
2023-03-06T01:28:37.422Z,7.40
2023-03-06T01:31:06.529Z,7.40
2023-03-06T01:33:35.948Z,7.40
2023-03-06T01:36:06.928Z,7.40
2023-03-06T01:38:36.085Z,7.40
2023-03-06T01:41:06.696Z,7.40
2023-03-06T01:43:37.445Z,7.40
2023-03-06T01:46:38.746Z,7.40
2023-03-06T01:49:14.006Z,7.40
2023-03-06T01:51:49.712Z,7.30
2023-03-06T01:54:23.997Z,7.30
2023-03-06T01:56:58.383Z,7.30
2023-03-06T01:59:27.666Z,7.30
2023-03-06T02:01:57.348Z,7.30
2023-03-06T02:04:26.326Z,7.30
2023-03-06T02:06:55.357Z,7.30
2023-03-06T02:09:23.960Z,7.30
2023-03-06T02:11:57.098Z,7.30
2023-03-06T02:14:25.753Z,7.30
2023-03-06T02:16:54.200Z,7.30
2023-03-06T02:19:38.210Z,7.30
2023-03-06T02:22:07.168Z,7.30
2023-03-06T02:24:40.653Z,7.30
2023-03-06T02:27:14.265Z,7.30
2023-03-06T02:29:45.460Z,7.40
2023-03-06T02:32:14.020Z,7.30
2023-03-06T02:34:57.790Z,7.30
2023-03-06T02:37:28.842Z,7.30
2023-03-06T02:40:13.368Z,7.30
2023-03-06T02:42:49.647Z,7.30
2023-03-06T02:45:24.487Z,7.30
2023-03-06T02:47:52.803Z,7.30
2023-03-06T02:50:21.443Z,7.30
2023-03-06T02:52:49.888Z,7.30
2023-03-06T02:55:18.489Z,7.30
2023-03-06T02:57:48.275Z,7.30
2023-03-06T03:00:19.065Z,7.30
2023-03-06T03:02:47.651Z,7.30
2023-03-06T03:05:16.371Z,7.30
2023-03-06T03:07:48.355Z,7.30
2023-03-06T03:10:17.913Z,7.30
2023-03-06T03:12:48.786Z,7.30
2023-03-06T03:15:18.210Z,7.30
2023-03-06T03:17:46.598Z,7.30
2023-03-06T03:20:18.800Z,7.30
2023-03-06T03:22:49.675Z,7.20
2023-03-06T03:25:19.035Z,7.20
2023-03-06T03:27:49.123Z,7.20
2023-03-06T03:30:18.290Z,7.20
2023-03-06T03:32:47.016Z,7.20
2023-03-06T03:35:15.384Z,7.20
2023-03-06T03:37:43.786Z,7.20
2023-03-06T03:40:13.856Z,7.20
2023-03-06T03:42:42.379Z,7.20
2023-03-06T03:45:13.628Z,7.20
2023-03-06T03:47:42.722Z,7.10
2023-03-06T03:50:13.044Z,7.10
2023-03-06T03:52:41.740Z,7.10
2023-03-06T03:55:11.337Z,7.10
2023-03-06T03:57:43.077Z,7.10
2023-03-06T04:00:16.711Z,7.10
2023-03-06T04:02:54.573Z,7.10
2023-03-06T04:05:29.913Z,7.10
2023-03-06T04:07:59.229Z,7.10
2023-03-06T04:10:27.723Z,7.10
2023-03-06T04:12:56.278Z,7.10
2023-03-06T04:15:26.260Z,7.10
2023-03-06T04:17:54.937Z,7.10
2023-03-06T04:20:30.614Z,7.10
2023-03-06T04:23:01.411Z,7.10
2023-03-06T04:25:30.552Z,7.10
2023-03-06T04:28:01.308Z,7.10
2023-03-06T04:30:32.731Z,7.10
2023-03-06T04:33:01.379Z,7.00
2023-03-06T04:35:30.301Z,7.10
2023-03-06T04:38:03.734Z,7.00
2023-03-06T04:40:35.131Z,7.00
2023-03-06T04:43:05.867Z,7.00
2023-03-06T04:45:36.168Z,7.00
2023-03-06T04:48:05.458Z,7.00
2023-03-06T04:50:33.897Z,7.00
2023-03-06T04:53:04.716Z,7.00
2023-03-06T04:55:33.310Z,7.00
2023-03-06T04:58:01.920Z,6.90
2023-03-06T05:00:31.756Z,6.90
2023-03-06T05:03:02.920Z,6.90
2023-03-06T05:05:31.888Z,6.90
2023-03-06T05:08:00.150Z,6.90
2023-03-06T05:10:29.196Z,6.90
2023-03-06T05:12:58.050Z,6.90
2023-03-06T05:15:26.705Z,6.90
2023-03-06T05:17:56.487Z,6.90
2023-03-06T05:20:26.435Z,6.90
2023-03-06T05:22:54.954Z,6.90
2023-03-06T05:25:23.355Z,6.90
2023-03-06T05:27:51.745Z,6.90
2023-03-06T05:30:22.483Z,6.80
2023-03-06T05:32:51.325Z,6.80
2023-03-06T05:35:22.510Z,6.80
2023-03-06T05:37:52.799Z,6.80
2023-03-06T05:40:21.722Z,6.80
2023-03-06T05:42:50.355Z,6.80
2023-03-06T05:45:19.122Z,6.80
2023-03-06T05:47:47.481Z,6.80
2023-03-06T05:50:15.902Z,6.80
2023-03-06T05:52:44.452Z,6.80
2023-03-06T05:55:15.555Z,6.80
2023-03-06T05:57:44.080Z,6.80
2023-03-06T06:00:15.495Z,6.80
2023-03-06T06:02:46.312Z,6.80
2023-03-06T06:05:15.393Z,6.80
2023-03-06T06:07:44.344Z,6.80
2023-03-06T06:10:15.378Z,6.90
2023-03-06T06:12:43.791Z,6.90
2023-03-06T06:15:12.274Z,6.90
2023-03-06T06:17:40.903Z,6.90
2023-03-06T06:20:11.236Z,6.90
2023-03-06T06:22:39.612Z,6.90
2023-03-06T06:25:09.350Z,6.90
2023-03-06T06:27:39.098Z,6.90
2023-03-06T06:30:11.640Z,6.90
2023-03-06T06:32:40.278Z,6.90
2023-03-06T06:35:09.428Z,6.90
2023-03-06T06:37:37.882Z,6.90
2023-03-06T06:40:08.161Z,6.90
2023-03-06T06:42:40.132Z,6.90
2023-03-06T06:45:11.241Z,6.90
2023-03-06T06:47:41.523Z,6.90
2023-03-06T06:50:13.584Z,6.90
2023-03-06T06:52:42.086Z,6.90
2023-03-06T06:55:12.013Z,6.90
2023-03-06T06:57:42.623Z,6.90
2023-03-06T07:00:15.811Z,6.90
2023-03-06T07:02:44.437Z,6.90
2023-03-06T07:05:13.189Z,6.90
2023-03-06T07:07:41.710Z,6.90
2023-03-06T07:10:15.597Z,6.90
2023-03-06T07:12:45.604Z,6.90
2023-03-06T07:15:17.800Z,6.80
2023-03-06T07:17:48.268Z,6.90
2023-03-06T07:20:19.365Z,6.90
2023-03-06T07:22:51.179Z,6.90
2023-03-06T07:25:22.820Z,6.90
2023-03-06T07:27:55.143Z,6.90
2023-03-06T07:30:24.760Z,6.90
2023-03-06T07:32:57.636Z,6.90
2023-03-06T07:35:26.957Z,6.90
2023-03-06T07:37:55.774Z,6.90
2023-03-06T07:40:24.888Z,6.90
2023-03-06T07:43:09.215Z,6.90
2023-03-06T07:45:57.829Z,6.90
2023-03-06T07:48:26.309Z,6.90
2023-03-06T07:51:00.263Z,6.90
2023-03-06T07:53:29.258Z,6.90
2023-03-06T07:55:57.892Z,6.90
2023-03-06T07:58:28.307Z,6.90
2023-03-06T08:00:56.667Z,6.90
2023-03-06T08:03:25.134Z,6.90
2023-03-06T08:05:53.834Z,6.90
2023-03-06T08:08:22.332Z,6.90
2023-03-06T08:10:51.630Z,6.90
2023-03-06T08:13:20.041Z,6.90
2023-03-06T08:15:50.748Z,6.90
2023-03-06T08:18:19.357Z,6.90
2023-03-06T08:20:47.737Z,6.90
2023-03-06T08:23:16.138Z,6.90
2023-03-06T08:25:44.394Z,6.90
2023-03-06T08:28:12.811Z,6.90
2023-03-06T08:30:41.439Z,6.90
2023-03-06T08:33:11.504Z,6.90
2023-03-06T08:35:39.977Z,6.90
2023-03-06T08:38:08.362Z,7.00
2023-03-06T08:40:36.729Z,7.00
2023-03-06T08:43:05.172Z,7.00
2023-03-06T08:45:33.538Z,7.00
2023-03-06T08:48:01.877Z,7.00
2023-03-06T08:50:31.795Z,7.00
2023-03-06T08:53:00.216Z,7.00
2023-03-06T08:55:29.155Z,7.10
2023-03-06T08:57:58.558Z,7.10
2023-03-06T09:00:27.499Z,7.00
2023-03-06T09:02:55.818Z,7.00
2023-03-06T09:05:24.499Z,7.00
2023-03-06T09:07:54.270Z,7.10
2023-03-06T09:10:25.745Z,7.10
2023-03-06T09:12:55.621Z,7.00
2023-03-06T09:15:25.021Z,7.10
2023-03-06T09:17:54.374Z,7.00
2023-03-06T09:20:23.209Z,7.00
2023-03-06T09:22:52.994Z,7.00
2023-03-06T09:25:23.293Z,7.00
2023-03-06T09:28:08.641Z,7.00
2023-03-06T09:30:41.222Z,7.00
2023-03-06T09:33:09.696Z,7.00
2023-03-06T09:35:51.816Z,7.00
2023-03-06T09:38:24.874Z,7.00
2023-03-06T09:43:39.225Z,7.00
2023-03-06T09:46:19.337Z,7.00
2023-03-06T09:49:02.711Z,6.90
2023-03-06T09:51:45.724Z,7.00
2023-03-06T09:54:17.128Z,7.00
2023-03-06T09:56:50.695Z,7.00
2023-03-06T09:59:22.190Z,7.00
2023-03-06T10:02:00.099Z,7.00
2023-03-06T10:04:40.323Z,7.00
2023-03-06T10:07:16.136Z,7.00
2023-03-06T10:09:52.507Z,7.00
2023-03-06T10:12:28.542Z,7.00
2023-03-06T10:15:18.091Z,7.00
2023-03-06T10:17:47.237Z,7.00
2023-03-06T10:20:22.766Z,7.00
2023-03-06T10:23:24.801Z,7.00
2023-03-06T10:26:02.904Z,7.10
2023-03-06T10:28:36.483Z,7.10
2023-03-06T10:31:12.195Z,7.10
2023-03-06T10:33:55.322Z,7.10
2023-03-06T10:36:28.055Z,7.10
2023-03-06T10:38:58.781Z,7.10
2023-03-06T10:41:30.555Z,7.10
2023-03-06T10:44:22.072Z,7.10
2023-03-06T10:46:53.418Z,7.10
2023-03-06T10:49:35.148Z,7.10
2023-03-06T10:52:07.871Z,7.10
2023-03-06T10:54:39.103Z,7.10
2023-03-06T10:57:27.019Z,7.10
2023-03-06T10:59:57.511Z,7.20
2023-03-06T11:02:32.156Z,7.20
2023-03-06T11:05:03.493Z,7.20
2023-03-06T11:07:33.799Z,7.20
2023-03-06T11:10:08.761Z,7.20
2023-03-06T11:12:40.049Z,7.20
2023-03-06T11:15:22.377Z,7.20
2023-03-06T11:17:56.561Z,7.20
2023-03-06T11:20:41.272Z,7.20
2023-03-06T11:23:20.582Z,7.20
2023-03-06T11:25:54.829Z,7.20
2023-03-06T11:28:30.131Z,7.20
2023-03-06T11:31:05.129Z,7.30
2023-03-06T11:33:41.200Z,7.20
2023-03-06T11:36:17.352Z,7.30
2023-03-06T11:38:50.752Z,7.30
2023-03-06T11:41:31.706Z,7.30
2023-03-06T11:44:09.266Z,7.40
2023-03-06T11:46:42.104Z,7.40
2023-03-06T11:49:25.284Z,7.40
2023-03-06T11:51:57.514Z,7.50
2023-03-06T11:54:26.112Z,7.60
2023-03-06T11:56:59.882Z,7.60
2023-03-06T12:00:11.311Z,7.70
2023-03-06T12:03:02.624Z,7.70
2023-03-06T12:05:43.913Z,7.70
2023-03-06T12:08:30.070Z,7.80
2023-03-06T12:11:06.449Z,7.80
2023-03-06T12:14:05.266Z,7.80
2023-03-06T12:16:48.723Z,7.70
2023-03-06T12:19:43.700Z,7.70
2023-03-06T12:22:37.093Z,7.70
2023-03-06T12:25:25.757Z,7.70
2023-03-06T12:28:13.710Z,7.70
2023-03-06T12:31:14.284Z,7.80
2023-03-06T12:33:57.235Z,7.80
2023-03-06T12:36:45.846Z,7.80
2023-03-06T12:39:35.719Z,7.80
2023-03-06T12:42:23.570Z,7.80
2023-03-06T12:45:25.099Z,7.80
2023-03-06T12:47:57.445Z,7.80
2023-03-06T12:50:30.433Z,7.90
2023-03-06T12:53:04.025Z,7.90
2023-03-06T12:55:41.184Z,7.90
2023-03-06T12:58:36.304Z,8.00
2023-03-06T13:01:10.072Z,8.00
2023-03-06T13:04:00.848Z,8.10
2023-03-06T13:06:54.125Z,8.10
2023-03-06T13:09:32.818Z,8.20
2023-03-06T13:12:27.450Z,8.30
2023-03-06T13:15:00.649Z,8.30
2023-03-06T13:17:36.923Z,8.40
2023-03-06T13:20:38.659Z,8.40
2023-03-06T13:23:49.487Z,8.40
2023-03-06T13:26:55.657Z,8.40
2023-03-06T13:29:54.032Z,8.40
2023-03-06T13:32:35.572Z,8.40
2023-03-06T13:35:52.756Z,8.40
2023-03-06T13:38:57.290Z,8.40
2023-03-06T13:41:45.002Z,8.40
2023-03-06T13:44:43.459Z,8.40
2023-03-06T13:48:15.838Z,8.40
2023-03-06T13:50:42.919Z,8.40
2023-03-06T13:54:17.367Z,8.40
2023-03-06T13:57:33.266Z,8.40
2023-03-06T14:00:58.172Z,8.40
2023-03-06T14:04:25.031Z,8.40
2023-03-06T14:07:13.474Z,8.40
2023-03-06T14:09:45.521Z,8.40
2023-03-06T14:12:24.043Z,8.40
2023-03-06T14:14:57.369Z,8.40
2023-03-06T14:17:31.462Z,8.50
2023-03-06T14:20:06.779Z,8.50
2023-03-06T14:22:35.142Z,8.50
2023-03-06T14:25:14.834Z,8.60
2023-03-06T14:27:49.435Z,8.60
2023-03-06T14:30:22.248Z,8.70
2023-03-06T14:32:55.200Z,8.70
2023-03-06T14:35:29.110Z,8.80
2023-03-06T14:38:01.834Z,8.80
2023-03-06T14:40:35.135Z,8.90
2023-03-06T14:43:29.142Z,8.90
2023-03-06T14:45:59.692Z,8.90
2023-03-06T14:48:40.741Z,8.90
2023-03-06T14:51:17.540Z,9.00
2023-03-06T14:53:49.111Z,9.00
2023-03-06T14:56:21.682Z,9.00
2023-03-06T14:59:00.389Z,9.00
2023-03-06T15:01:38.496Z,9.00
2023-03-06T15:04:18.119Z,9.00
2023-03-06T15:06:46.894Z,9.00
2023-03-06T15:09:20.548Z,9.10
2023-03-06T15:11:57.967Z,9.10
2023-03-06T15:14:50.479Z,9.10
2023-03-06T15:17:26.207Z,9.10
2023-03-06T15:19:57.135Z,9.10
2023-03-06T15:22:38.251Z,9.10
2023-03-06T15:25:23.298Z,9.10
2023-03-06T15:27:54.676Z,9.00
2023-03-06T15:30:28.934Z,9.10
2023-03-06T15:33:26.098Z,9.10
2023-03-06T15:35:57.529Z,9.00
2023-03-06T15:38:33.941Z,9.00
2023-03-06T15:41:04.752Z,9.10
2023-03-06T15:43:37.881Z,9.00
2023-03-06T15:46:09.125Z,9.00
2023-03-06T15:48:37.489Z,9.00
2023-03-06T15:51:06.859Z,9.00
2023-03-06T15:53:35.264Z,9.00
2023-03-06T15:56:03.697Z,8.90
2023-03-06T15:58:35.159Z,8.90
2023-03-06T16:01:03.722Z,8.90
2023-03-06T16:03:33.805Z,8.90
2023-03-06T16:06:02.510Z,8.90
2023-03-06T16:08:31.225Z,8.90
2023-03-06T16:10:59.699Z,8.80
2023-03-06T16:13:29.600Z,8.80
2023-03-06T16:15:58.012Z,8.80
2023-03-06T16:18:26.776Z,8.70
2023-03-06T16:20:56.524Z,8.70
2023-03-06T16:23:25.121Z,8.70
2023-03-06T16:25:53.527Z,8.70
2023-03-06T16:28:22.626Z,8.60
2023-03-06T16:30:50.988Z,8.60
2023-03-06T16:33:19.323Z,8.60
2023-03-06T16:35:49.937Z,8.60
2023-03-06T16:38:19.801Z,8.50
2023-03-06T16:40:48.264Z,8.50
2023-03-06T16:43:16.718Z,8.50
2023-03-06T16:45:45.641Z,8.50
2023-03-06T16:48:18.166Z,8.50
2023-03-06T16:50:46.898Z,8.50
2023-03-06T16:53:16.139Z,8.40
2023-03-06T16:55:46.882Z,8.40
2023-03-06T16:58:15.305Z,8.40
2023-03-06T17:00:43.871Z,8.40
2023-03-06T17:03:12.460Z,8.40
2023-03-06T17:05:43.041Z,8.40
2023-03-06T17:08:12.588Z,8.40
2023-03-06T17:10:43.148Z,8.40
2023-03-06T17:13:14.081Z,8.40
2023-03-06T17:15:42.692Z,8.40
2023-03-06T17:18:11.441Z,8.40
2023-03-06T17:20:40.695Z,8.30
2023-03-06T17:23:09.340Z,8.30
2023-03-06T17:25:38.416Z,8.30
2023-03-06T17:28:06.929Z,8.30
2023-03-06T17:30:36.768Z,8.30
2023-03-06T17:33:05.296Z,8.30
2023-03-06T17:35:36.483Z,8.30
2023-03-06T17:38:04.862Z,8.30
2023-03-06T17:40:35.585Z,8.20
2023-03-06T17:43:04.179Z,8.20
2023-03-06T17:45:34.231Z,8.20
2023-03-06T17:48:04.182Z,8.20
2023-03-06T17:50:32.562Z,8.20
2023-03-06T17:53:00.905Z,8.20
2023-03-06T17:55:29.921Z,8.20
2023-03-06T17:57:58.559Z,8.20
2023-03-06T18:00:27.320Z,8.20
2023-03-06T18:02:55.924Z,8.20
2023-03-06T18:05:26.348Z,8.20
2023-03-06T18:07:55.014Z,8.20
2023-03-06T18:10:23.862Z,8.20
2023-03-06T18:12:52.433Z,8.20
2023-03-06T18:15:21.290Z,8.20
2023-03-06T18:17:50.148Z,8.20
2023-03-06T18:20:18.928Z,8.20
2023-03-06T18:22:48.781Z,8.20
2023-03-06T18:25:17.410Z,8.20
2023-03-06T18:27:46.735Z,8.10
2023-03-06T18:30:16.167Z,8.20
2023-03-06T18:32:44.674Z,8.20
2023-03-06T18:35:13.031Z,8.10
2023-03-06T18:37:41.538Z,8.10
2023-03-06T18:40:13.696Z,8.10
2023-03-06T18:42:42.158Z,8.10
2023-03-06T18:45:12.715Z,8.10
2023-03-06T18:47:41.592Z,8.10
2023-03-06T18:50:16.415Z,8.10
2023-03-06T18:52:45.402Z,8.10
2023-03-06T18:55:15.634Z,8.10
2023-03-06T18:57:44.008Z,8.10
2023-03-06T19:00:13.788Z,8.10
2023-03-06T19:02:42.247Z,8.10
2023-03-06T19:05:11.063Z,8.10
2023-03-06T19:07:40.260Z,8.10
2023-03-06T19:10:10.357Z,8.10
2023-03-06T19:12:40.222Z,8.10
2023-03-06T19:15:10.232Z,8.10
2023-03-06T19:17:38.737Z,8.10
2023-03-06T19:20:08.708Z,8.10
2023-03-06T19:22:37.294Z,8.00
2023-03-06T19:25:07.756Z,8.00
2023-03-06T19:27:37.912Z,8.00
2023-03-06T19:30:09.914Z,8.00
2023-03-06T19:32:38.878Z,8.00
2023-03-06T19:35:10.683Z,8.00
2023-03-06T19:37:39.393Z,7.90
2023-03-06T19:40:10.133Z,8.00
2023-03-06T19:42:38.738Z,7.90
2023-03-06T19:45:10.529Z,7.90
2023-03-06T19:47:39.106Z,7.90
2023-03-06T19:50:09.449Z,7.90
2023-03-06T19:52:39.005Z,7.90
2023-03-06T19:55:09.625Z,7.90
2023-03-06T19:57:38.166Z,7.90
2023-03-06T20:00:11.000Z,7.90
2023-03-06T20:02:42.253Z,7.90
2023-03-06T20:05:11.119Z,7.90
2023-03-06T20:07:39.576Z,7.80
2023-03-06T20:10:08.951Z,7.80
2023-03-06T20:12:37.666Z,7.80
2023-03-06T20:15:12.073Z,7.80
2023-03-06T20:17:41.504Z,7.80
2023-03-06T20:20:12.436Z,7.70
2023-03-06T20:22:40.942Z,7.80
2023-03-06T20:25:09.808Z,7.70
2023-03-06T20:27:38.311Z,7.70
2023-03-06T20:30:13.114Z,7.70
2023-03-06T20:32:41.651Z,7.70
2023-03-06T20:35:10.558Z,7.70
2023-03-06T20:37:40.802Z,7.70
2023-03-06T20:40:11.046Z,7.70
2023-03-06T20:42:39.505Z,7.70
2023-03-06T20:45:10.944Z,7.70
2023-03-06T20:47:39.346Z,7.70
2023-03-06T20:50:08.949Z,7.60
2023-03-06T20:52:37.660Z,7.60
2023-03-06T20:55:07.649Z,7.60
2023-03-06T20:57:36.117Z,7.70
2023-03-06T21:00:06.500Z,7.60
2023-03-06T21:02:36.603Z,7.60
2023-03-06T21:05:05.794Z,7.60
2023-03-06T21:07:34.273Z,7.60
2023-03-06T21:10:03.212Z,7.60
2023-03-06T21:12:31.682Z,7.60
2023-03-06T21:15:00.376Z,7.60
2023-03-06T21:17:30.379Z,7.50
2023-03-06T21:20:00.568Z,7.60
2023-03-06T21:22:30.251Z,7.50
2023-03-06T21:24:58.872Z,7.50
2023-03-06T21:27:27.214Z,7.50
2023-03-06T21:29:55.604Z,7.50
2023-03-06T21:32:24.092Z,7.50
2023-03-06T21:34:52.686Z,7.40
2023-03-06T21:37:22.565Z,7.40
2023-03-06T21:39:51.074Z,7.40
2023-03-06T21:42:19.513Z,7.40
2023-03-06T21:44:48.500Z,7.40
2023-03-06T21:47:17.147Z,7.40
2023-03-06T21:49:45.583Z,7.40
2023-03-06T21:52:13.953Z,7.40
2023-03-06T21:54:43.863Z,7.30
2023-03-06T21:57:12.297Z,7.30
2023-03-06T21:59:40.939Z,7.30
2023-03-06T22:02:11.376Z,7.30
2023-03-06T22:04:39.866Z,7.30
2023-03-06T22:07:08.427Z,7.30
2023-03-06T22:09:37.357Z,7.30
2023-03-06T22:12:08.214Z,7.30
2023-03-06T22:14:36.633Z,7.30
2023-03-06T22:17:05.690Z,7.30
2023-03-06T22:19:34.230Z,7.20
2023-03-06T22:22:03.728Z,7.20
2023-03-06T22:24:33.495Z,7.20
2023-03-06T22:27:01.887Z,7.20
2023-03-06T22:29:31.571Z,7.20
2023-03-06T22:32:00.001Z,7.20
2023-03-06T22:34:28.587Z,7.20
2023-03-06T22:36:57.641Z,7.10
2023-03-06T22:39:26.038Z,7.10
2023-03-06T22:41:56.798Z,7.10
2023-03-06T22:44:25.609Z,7.10
2023-03-06T22:46:56.000Z,7.10
2023-03-06T22:49:24.581Z,7.10
2023-03-06T22:51:52.890Z,7.10
2023-03-06T22:54:21.271Z,7.10
2023-03-06T22:56:49.725Z,7.10
2023-03-06T22:59:18.164Z,7.10
2023-03-06T23:01:46.636Z,7.20
2023-03-06T23:04:16.440Z,7.10
2023-03-06T23:06:46.703Z,7.10
2023-03-06T23:09:18.245Z,7.10
2023-03-06T23:12:06.150Z,7.10
2023-03-06T23:14:53.651Z,7.10
2023-03-06T23:17:40.876Z,7.10
2023-03-06T23:20:32.224Z,7.10
2023-03-06T23:23:19.429Z,7.00
2023-03-06T23:25:48.877Z,7.10
2023-03-06T23:28:17.488Z,7.00
2023-03-06T23:30:46.279Z,7.00
2023-03-06T23:33:14.688Z,7.00
2023-03-06T23:35:45.390Z,7.00
2023-03-06T23:38:13.962Z,7.00
2023-03-06T23:40:42.917Z,7.00
2023-03-06T23:43:11.335Z,7.00
2023-03-06T23:45:39.817Z,7.00
2023-03-06T23:48:08.573Z,7.00
2023-03-06T23:50:41.160Z,7.00
2023-03-06T23:53:11.012Z,7.00
2023-03-06T23:55:42.295Z,7.00
2023-03-06T23:58:10.836Z,7.00
